Flight Track Log - Related Links

Times and Time Zones

All times are in EDT time to prevent confusion due to time zone crossing. See the SWA407 flight status page for this flight to view local times or setup timezone preferences in your user account.

Time Position Orientation Groundspeed Altitude Reporting Facility
EDT Latitude Longitude Course Direction KTS MPH feet Rate Location/Type
Mon 04:20:18 PM 28.4333 -81.3000 24° Northeast 150 173 600  Level Orlando TRACON
Mon 04:21:12 PM 28.4667 -81.2833 24° Northeast 205 236 3,200 2,474 Climbing Orlando TRACON
Mon 04:22:12 PM 28.5333 -81.2500 24° Northeast 269 310 5,300 3,180 Climbing Orlando TRACON
Mon 04:24:32 PM 28.7136 -81.2758 353° North 303 349 13,800 3,240 Climbing Jacksonville Center
Mon 04:25:32 PM 28.8100 -81.2978 349° North 328 377 16,100 2,550 Climbing Jacksonville Center
Mon 04:26:32 PM 28.9064 -81.3294 344° North 348 400 18,900 3,000 Climbing Jacksonville Center
Mon 04:27:32 PM 29.0089 -81.3611 345° North 360 414 22,100 3,100 Climbing Jacksonville Center
Mon 04:28:32 PM 29.1136 -81.3928 345° North 371 427 25,100 2,750 Climbing Jacksonville Center
Mon 04:29:32 PM 29.2267 -81.4078 353° North 390 449 27,600 2,700 Climbing Jacksonville Center
Mon 04:30:32 PM 29.3461 -81.4561 341° North 396 456 30,500 2,750 Climbing Jacksonville Center
Mon 04:31:32 PM 29.4531 -81.4997 340° North 402 463 33,100 2,250 Climbing Jacksonville Center
Mon 04:32:32 PM 29.5600 -81.5458 339° North 408 470 35,000 950 Climbing Jacksonville Center
Mon 04:33:32 PM 29.6669 -81.5900 340° North 408 470 35,000  Level Jacksonville Center
Mon 04:34:32 PM 29.7717 -81.6339 340° North 408 470 35,000  Level Jacksonville Center
Mon 04:35:32 PM 29.8767 -81.6781 340° North 403 464 35,000  Level Jacksonville Center
Mon 04:36:32 PM 29.9814 -81.7200 341° North 403 464 35,000  Level Jacksonville Center
Mon 04:37:32 PM 30.0756 -81.7572 341° North 398 458 35,000  Level Jacksonville Center
Mon 04:38:32 PM 30.1847 -81.8017 341° North 398 458 35,000  Level Jacksonville Center
Mon 04:39:32 PM 30.2894 -81.8461 340° North 398 458 35,000  Level Jacksonville Center
Mon 04:40:32 PM 30.3942 -81.8883 341° North 398 458 35,000  Level Jacksonville Center
Mon 04:41:32 PM 30.4989 -81.9331 340° North 398 458 35,000  Level Jacksonville Center
Mon 04:42:32 PM 30.6058 -81.9850 337° Northwest 404 465 35,000  Level Jacksonville Center
Mon 04:43:32 PM 30.7125 -82.0300 340° North 404 465 35,000  Level Jacksonville Center
Mon 04:44:32 PM 30.8150 -82.0725 340° North 404 465 35,000  Level Jacksonville Center
Mon 04:45:32 PM 30.9219 -82.1200 339° North 399 459 35,000  Level Jacksonville Center
Mon 04:46:32 PM 31.0244 -82.1653 339° North 399 459 35,000  Level Jacksonville Center
Mon 04:47:32 PM 31.1311 -82.2131 339° North 399 459 35,000  Level Jacksonville Center
Mon 04:48:32 PM 31.2378 -82.2558 341° North 399 459 35,000  Level Jacksonville Center
Mon 04:49:32 PM 31.3467 -82.2992 341° North 399 459 35,000  Level Jacksonville Center
Mon 04:50:32 PM 31.4639 -82.3469 341° North 399 459 35,000  Level Jacksonville Center
Mon 04:52:39 PM 31.6903 -82.4475 339° North 415 478 35,000  Level Atlanta Center
Mon 04:53:39 PM 31.7975 -82.4944 340° North 415 478 35,000  Level Atlanta Center
Mon 04:54:39 PM 31.9003 -82.5417 339° North 415 478 35,000  Level Atlanta Center
Mon 04:55:39 PM 32.0072 -82.5839 341° North 409 471 35,000  Level Atlanta Center
Mon 04:56:39 PM 32.1061 -82.6461 332° Northwest 403 464 35,000 -150 Level Atlanta Center
Mon 04:57:39 PM 32.1864 -82.7308 318° Northwest 398 458 34,700 -500 Descending Atlanta Center
Mon 04:58:39 PM 32.2706 -82.8156 320° Northwest 398 458 34,000 -350 Descending Atlanta Center
Mon 04:59:39 PM 32.3528 -82.9028 318° Northwest 398 458 34,000  Level Atlanta Center
Mon 05:00:39 PM 32.4350 -82.9831 321° Northwest 393 452 34,000 -50 Level Atlanta Center
Mon 05:01:39 PM 32.5172 -83.0708 318° Northwest 393 452 33,900 -1,200 Descending Atlanta Center
Mon 05:02:39 PM 32.5992 -83.1561 319° Northwest 393 452 31,600 -2,250 Descending Atlanta Center
Mon 05:03:39 PM 32.6769 -83.2367 319° Northwest 393 452 29,400 -2,150 Descending Atlanta Center
Mon 05:04:39 PM 32.7506 -83.3153 318° Northwest 379 436 27,300 -2,100 Descending Atlanta Center
Mon 05:05:39 PM 32.8261 -83.3961 318° Northwest 368 423 25,200 -2,050 Descending Atlanta Center
Mon 05:06:39 PM 32.8953 -83.4697 318° Northwest 355 409 23,200 -2,000 Descending Atlanta Center
Mon 05:07:39 PM 32.9667 -83.5461 318° Northwest 349 402 21,200 -2,000 Descending Atlanta Center
Mon 05:08:39 PM 33.0358 -83.6175 319° Northwest 334 384 19,200 -1,900 Descending Atlanta Center
Mon 05:09:39 PM 33.1008 -83.6892 317° Northwest 329 379 17,400 -1,950 Descending Atlanta Center
Mon 05:10:39 PM 33.1678 -83.7583 319° Northwest 312 359 15,300 -1,672 Descending Atlanta Center
Mon 05:11:41 PM 33.2333 -83.8333 316° Northwest 306 352 14,000 -738 Descending Atlanta TRACON
Mon 05:12:41 PM 33.2833 -83.9167 306° West 318 366 13,800 -619 Descending Atlanta TRACON
Mon 05:13:47 PM 33.3500 -84.0000 314° West 303 349 12,700 -900 Descending Atlanta TRACON
Mon 05:14:41 PM 33.3833 -84.0667 301° West 310 357 12,000 -350 Descending Atlanta TRACON
Mon 05:15:47 PM 33.4500 -84.1667 309° West 309 356 12,000  Level Atlanta TRACON
Mon 05:16:41 PM 33.5000 -84.2333 312° West 303 349 12,000 -100 Level Atlanta TRACON
Mon 05:17:47 PM 33.5500 -84.3167 306° West 244 281 11,800 -992 Descending Atlanta TRACON
Mon 05:18:42 PM 33.5500 -84.3833 270° West 244 281 10,000 -1,835 Descending Atlanta TRACON
Mon 05:19:48 PM 33.5500 -84.4667 270° West 238 274 8,100 -1,667 Descending Atlanta TRACON
Mon 05:20:48 PM 33.5500 -84.5500 270° West 227 261 6,500 -1,650 Descending Atlanta TRACON
Mon 05:21:48 PM 33.5500 -84.6167 270° West 230 265 4,800 -1,650 Descending Atlanta TRACON
Mon 05:22:48 PM 33.6167 -84.6167 360° North 235 270 3,200 -1,050 Descending Atlanta TRACON
Mon 05:23:48 PM 33.6333 -84.5500 73° East 199 229 2,700 -684 Descending Atlanta TRACON
Mon 05:24:42 PM 33.6333 -84.5000 90° East 155 178 1,900 -789 Descending Atlanta TRACON
Mon 05:25:42 PM 33.6333 -84.4500 90° East 127 146 1,200 -700 Descending Atlanta TRACON
Mon 05:27:00 PM 33.6367 -84.4279 64° Northeast  Level Estimated
Mon 05:34:00 PM 33.6367 -84.4279 64° Northeast  Level Estimated

Login

Don't have an account? Register now (free) for customized features, flight alerts, and more!